sensor_id;sensor_type;location;lat;lon;timestamp;P1;durP1;ratioP1;P2;durP2;ratioP2
4676;SDS011;2352;48.180;11.478;2022-07-11T00:02:37;1.30;;;1.20;;
4676;SDS011;2352;48.180;11.478;2022-07-11T00:05:41;2.63;;;0.97;;
4676;SDS011;2352;48.180;11.478;2022-07-11T00:08:44;1.37;;;1.27;;
4676;SDS011;2352;48.180;11.478;2022-07-11T00:11:47;2.00;;;1.77;;
4676;SDS011;2352;48.180;11.478;2022-07-11T00:14:51;1.77;;;1.30;;
4676;SDS011;2352;48.180;11.478;2022-07-11T00:17:54;1.20;;;1.10;;
4676;SDS011;2352;48.180;11.478;2022-07-11T00:20:58;2.07;;;1.00;;
4676;SDS011;2352;48.180;11.478;2022-07-11T00:24:01;2.00;;;1.23;;
4676;SDS011;2352;48.180;11.478;2022-07-11T00:27:04;1.20;;;1.03;;
4676;SDS011;2352;48.180;11.478;2022-07-11T00:30:09;1.47;;;1.10;;
4676;SDS011;2352;48.180;11.478;2022-07-11T00:33:12;1.57;;;1.10;;
4676;SDS011;2352;48.180;11.478;2022-07-11T00:36:15;0.70;;;0.70;;
4676;SDS011;2352;48.180;11.478;2022-07-11T00:39:18;1.20;;;1.00;;
4676;SDS011;2352;48.180;11.478;2022-07-11T00:42:21;0.97;;;0.80;;
4676;SDS011;2352;48.180;11.478;2022-07-11T00:45:26;1.57;;;0.90;;
4676;SDS011;2352;48.180;11.478;2022-07-11T00:48:29;1.70;;;1.23;;
4676;SDS011;2352;48.180;11.478;2022-07-11T00:51:32;1.20;;;1.10;;
4676;SDS011;2352;48.180;11.478;2022-07-11T00:54:35;1.93;;;0.90;;
4676;SDS011;2352;48.180;11.478;2022-07-11T00:57:39;1.10;;;1.00;;
4676;SDS011;2352;48.180;11.478;2022-07-11T01:00:43;0.77;;;0.77;;
4676;SDS011;2352;48.180;11.478;2022-07-11T01:03:47;3.13;;;1.03;;
4676;SDS011;2352;48.180;11.478;2022-07-11T01:06:50;0.80;;;0.60;;
4676;SDS011;2352;48.180;11.478;2022-07-11T01:09:54;0.70;;;0.60;;
4676;SDS011;2352;48.180;11.478;2022-07-11T01:12:57;0.53;;;0.53;;
4676;SDS011;2352;48.180;11.478;2022-07-11T01:16:09;1.20;;;0.60;;
4676;SDS011;2352;48.180;11.478;2022-07-11T01:19:14;0.83;;;0.63;;
4676;SDS011;2352;48.180;11.478;2022-07-11T01:22:19;0.50;;;0.50;;
4676;SDS011;2352;48.180;11.478;2022-07-11T01:25:27;0.50;;;0.50;;
4676;SDS011;2352;48.180;11.478;2022-07-11T01:28:35;1.63;;;0.70;;
4676;SDS011;2352;48.180;11.478;2022-07-11T01:31:38;1.00;;;0.57;;
4676;SDS011;2352;48.180;11.478;2022-07-11T01:34:42;1.23;;;0.70;;
4676;SDS011;2352;48.180;11.478;2022-07-11T01:37:45;1.67;;;0.70;;
4676;SDS011;2352;48.180;11.478;2022-07-11T01:40:49;0.60;;;0.60;;
4676;SDS011;2352;48.180;11.478;2022-07-11T01:43:52;1.37;;;1.00;;
4676;SDS011;2352;48.180;11.478;2022-07-11T01:46:56;0.77;;;0.50;;
4676;SDS011;2352;48.180;11.478;2022-07-11T01:49:59;0.80;;;0.80;;
4676;SDS011;2352;48.180;11.478;2022-07-11T01:53:02;1.23;;;0.60;;
4676;SDS011;2352;48.180;11.478;2022-07-11T01:56:06;0.93;;;0.73;;
4676;SDS011;2352;48.180;11.478;2022-07-11T01:59:21;2.33;;;0.70;;
4676;SDS011;2352;48.180;11.478;2022-07-11T02:02:24;0.60;;;0.60;;
4676;SDS011;2352;48.180;11.478;2022-07-11T02:05:27;2.20;;;0.70;;
4676;SDS011;2352;48.180;11.478;2022-07-11T02:08:30;0.67;;;0.67;;
4676;SDS011;2352;48.180;11.478;2022-07-11T02:11:34;1.07;;;0.63;;
4676;SDS011;2352;48.180;11.478;2022-07-11T02:14:37;0.93;;;0.67;;
4676;SDS011;2352;48.180;11.478;2022-07-11T02:17:40;0.87;;;0.50;;
4676;SDS011;2352;48.180;11.478;2022-07-11T02:20:43;0.83;;;0.50;;
4676;SDS011;2352;48.180;11.478;2022-07-11T02:23:50;0.83;;;0.80;;
4676;SDS011;2352;48.180;11.478;2022-07-11T02:26:54;0.63;;;0.60;;
4676;SDS011;2352;48.180;11.478;2022-07-11T02:29:57;0.73;;;0.60;;
4676;SDS011;2352;48.180;11.478;2022-07-11T02:33:00;1.80;;;0.70;;
4676;SDS011;2352;48.180;11.478;2022-07-11T02:36:03;1.03;;;0.63;;
4676;SDS011;2352;48.180;11.478;2022-07-11T02:39:08;0.50;;;0.50;;
4676;SDS011;2352;48.180;11.478;2022-07-11T02:42:13;1.77;;;1.43;;
4676;SDS011;2352;48.180;11.478;2022-07-11T02:45:15;2.23;;;0.67;;
4676;SDS011;2352;48.180;11.478;2022-07-11T02:48:18;1.70;;;0.50;;
4676;SDS011;2352;48.180;11.478;2022-07-11T02:51:21;0.40;;;0.40;;
4676;SDS011;2352;48.180;11.478;2022-07-11T02:54:24;0.90;;;0.60;;
4676;SDS011;2352;48.180;11.478;2022-07-11T02:57:29;0.80;;;0.80;;
4676;SDS011;2352;48.180;11.478;2022-07-11T03:00:32;1.77;;;1.10;;
4676;SDS011;2352;48.180;11.478;2022-07-11T03:03:35;0.97;;;0.57;;
4676;SDS011;2352;48.180;11.478;2022-07-11T03:06:38;0.70;;;0.50;;
4676;SDS011;2352;48.180;11.478;2022-07-11T03:09:41;0.67;;;0.57;;
4676;SDS011;2352;48.180;11.478;2022-07-11T03:12:45;0.83;;;0.50;;
4676;SDS011;2352;48.180;11.478;2022-07-11T03:15:49;1.27;;;0.70;;
4676;SDS011;2352;48.180;11.478;2022-07-11T03:18:52;0.70;;;0.60;;
4676;SDS011;2352;48.180;11.478;2022-07-11T03:21:55;0.53;;;0.50;;
4676;SDS011;2352;48.180;11.478;2022-07-11T03:24:58;0.90;;;0.67;;
4676;SDS011;2352;48.180;11.478;2022-07-11T03:28:03;0.67;;;0.67;;
4676;SDS011;2352;48.180;11.478;2022-07-11T03:31:07;1.13;;;0.70;;
4676;SDS011;2352;48.180;11.478;2022-07-11T03:34:10;2.30;;;0.70;;
4676;SDS011;2352;48.180;11.478;2022-07-11T03:37:12;1.20;;;0.70;;
4676;SDS011;2352;48.180;11.478;2022-07-11T03:40:15;1.70;;;0.90;;
4676;SDS011;2352;48.180;11.478;2022-07-11T03:43:20;1.13;;;1.00;;
4676;SDS011;2352;48.180;11.478;2022-07-11T03:46:23;0.80;;;0.70;;
4676;SDS011;2352;48.180;11.478;2022-07-11T03:49:26;1.40;;;1.00;;
4676;SDS011;2352;48.180;11.478;2022-07-11T03:52:29;1.90;;;0.87;;
4676;SDS011;2352;48.180;11.478;2022-07-11T03:55:33;1.10;;;1.00;;
4676;SDS011;2352;48.180;11.478;2022-07-11T03:58:37;0.57;;;0.57;;
4676;SDS011;2352;48.180;11.478;2022-07-11T04:01:40;2.00;;;1.07;;
4676;SDS011;2352;48.180;11.478;2022-07-11T04:04:43;1.00;;;0.90;;
4676;SDS011;2352;48.180;11.478;2022-07-11T04:07:46;0.90;;;0.90;;
4676;SDS011;2352;48.180;11.478;2022-07-11T04:10:49;0.70;;;0.70;;
4676;SDS011;2352;48.180;11.478;2022-07-11T04:13:54;0.73;;;0.73;;
4676;SDS011;2352;48.180;11.478;2022-07-11T04:16:57;2.27;;;1.17;;
4676;SDS011;2352;48.180;11.478;2022-07-11T04:20:00;1.33;;;0.77;;
4676;SDS011;2352;48.180;11.478;2022-07-11T04:23:03;1.03;;;0.80;;
4676;SDS011;2352;48.180;11.478;2022-07-11T04:26:06;1.40;;;0.73;;
4676;SDS011;2352;48.180;11.478;2022-07-11T04:29:11;0.87;;;0.83;;
4676;SDS011;2352;48.180;11.478;2022-07-11T04:32:13;0.90;;;0.80;;
4676;SDS011;2352;48.180;11.478;2022-07-11T04:35:16;1.33;;;0.90;;
4676;SDS011;2352;48.180;11.478;2022-07-11T04:38:19;1.97;;;0.90;;
4676;SDS011;2352;48.180;11.478;2022-07-11T04:41:23;1.63;;;1.17;;
4676;SDS011;2352;48.180;11.478;2022-07-11T04:44:27;2.77;;;0.80;;
4676;SDS011;2352;48.180;11.478;2022-07-11T04:47:30;0.93;;;0.83;;
4676;SDS011;2352;48.180;11.478;2022-07-11T04:50:33;2.13;;;0.63;;
4676;SDS011;2352;48.180;11.478;2022-07-11T04:53:37;2.53;;;1.20;;
4676;SDS011;2352;48.180;11.478;2022-07-11T04:56:40;1.03;;;0.70;;
4676;SDS011;2352;48.180;11.478;2022-07-11T04:59:44;2.00;;;0.90;;
4676;SDS011;2352;48.180;11.478;2022-07-11T05:02:47;2.50;;;1.00;;
4676;SDS011;2352;48.180;11.478;2022-07-11T05:05:50;1.30;;;0.60;;
4676;SDS011;2352;48.180;11.478;2022-07-11T05:08:53;8.77;;;1.03;;
4676;SDS011;2352;48.180;11.478;2022-07-11T05:11:56;1.53;;;0.70;;
4676;SDS011;2352;48.180;11.478;2022-07-11T05:15:01;0.67;;;0.60;;
4676;SDS011;2352;48.180;11.478;2022-07-11T05:18:04;0.93;;;0.80;;
4676;SDS011;2352;48.180;11.478;2022-07-11T05:21:07;0.53;;;0.53;;
4676;SDS011;2352;48.180;11.478;2022-07-11T05:24:10;1.27;;;0.83;;
4676;SDS011;2352;48.180;11.478;2022-07-11T05:27:13;1.30;;;1.20;;
4676;SDS011;2352;48.180;11.478;2022-07-11T05:30:17;0.63;;;0.63;;
4676;SDS011;2352;48.180;11.478;2022-07-11T05:33:20;2.80;;;1.30;;
4676;SDS011;2352;48.180;11.478;2022-07-11T05:36:23;0.93;;;0.80;;
4676;SDS011;2352;48.180;11.478;2022-07-11T05:39:26;0.60;;;0.60;;
4676;SDS011;2352;48.180;11.478;2022-07-11T05:42:30;3.30;;;0.97;;
4676;SDS011;2352;48.180;11.478;2022-07-11T05:45:35;2.33;;;0.60;;
4676;SDS011;2352;48.180;11.478;2022-07-11T05:48:38;2.50;;;0.73;;
4676;SDS011;2352;48.180;11.478;2022-07-11T05:51:41;1.70;;;1.40;;
4676;SDS011;2352;48.180;11.478;2022-07-11T05:54:44;5.47;;;0.80;;
4676;SDS011;2352;48.180;11.478;2022-07-11T05:57:47;3.40;;;0.90;;
4676;SDS011;2352;48.180;11.478;2022-07-11T06:00:51;0.77;;;0.50;;
4676;SDS011;2352;48.180;11.478;2022-07-11T06:03:54;2.37;;;0.80;;
4676;SDS011;2352;48.180;11.478;2022-07-11T06:06:57;0.70;;;0.70;;
4676;SDS011;2352;48.180;11.478;2022-07-11T06:10:00;0.70;;;0.60;;
4676;SDS011;2352;48.180;11.478;2022-07-11T06:13:02;1.37;;;0.50;;
4676;SDS011;2352;48.180;11.478;2022-07-11T06:16:07;2.13;;;0.63;;
4676;SDS011;2352;48.180;11.478;2022-07-11T06:19:11;2.00;;;0.60;;
4676;SDS011;2352;48.180;11.478;2022-07-11T06:22:16;0.97;;;0.73;;
4676;SDS011;2352;48.180;11.478;2022-07-11T06:25:25;2.10;;;0.83;;
4676;SDS011;2352;48.180;11.478;2022-07-11T06:28:28;1.43;;;0.90;;
4676;SDS011;2352;48.180;11.478;2022-07-11T06:31:33;1.97;;;0.47;;
4676;SDS011;2352;48.180;11.478;2022-07-11T06:34:36;0.60;;;0.57;;
4676;SDS011;2352;48.180;11.478;2022-07-11T06:37:39;1.40;;;0.57;;
4676;SDS011;2352;48.180;11.478;2022-07-11T06:40:43;1.07;;;0.60;;
4676;SDS011;2352;48.180;11.478;2022-07-11T06:43:46;2.80;;;0.60;;
4676;SDS011;2352;48.180;11.478;2022-07-11T06:46:51;0.90;;;0.50;;
4676;SDS011;2352;48.180;11.478;2022-07-11T06:49:54;1.37;;;0.67;;
4676;SDS011;2352;48.180;11.478;2022-07-11T06:52:57;2.40;;;0.60;;
4676;SDS011;2352;48.180;11.478;2022-07-11T06:56:00;2.23;;;0.93;;
4676;SDS011;2352;48.180;11.478;2022-07-11T06:59:03;1.47;;;0.50;;
4676;SDS011;2352;48.180;11.478;2022-07-11T07:02:07;0.53;;;0.53;;
4676;SDS011;2352;48.180;11.478;2022-07-11T07:05:10;0.87;;;0.70;;
4676;SDS011;2352;48.180;11.478;2022-07-11T07:08:14;1.50;;;0.97;;
4676;SDS011;2352;48.180;11.478;2022-07-11T07:11:17;0.90;;;0.63;;
4676;SDS011;2352;48.180;11.478;2022-07-11T07:14:21;1.00;;;0.63;;
4676;SDS011;2352;48.180;11.478;2022-07-11T07:17:25;1.73;;;0.73;;
4676;SDS011;2352;48.180;11.478;2022-07-11T07:20:28;0.93;;;0.70;;
4676;SDS011;2352;48.180;11.478;2022-07-11T07:23:32;1.17;;;0.60;;
4676;SDS011;2352;48.180;11.478;2022-07-11T07:26:35;6.70;;;0.90;;
4676;SDS011;2352;48.180;11.478;2022-07-11T07:29:38;0.93;;;0.60;;
4676;SDS011;2352;48.180;11.478;2022-07-11T07:32:42;1.40;;;0.70;;
4676;SDS011;2352;48.180;11.478;2022-07-11T07:35:45;1.07;;;0.70;;
4676;SDS011;2352;48.180;11.478;2022-07-11T07:38:48;1.07;;;0.63;;
4676;SDS011;2352;48.180;11.478;2022-07-11T07:41:51;1.30;;;1.00;;
4676;SDS011;2352;48.180;11.478;2022-07-11T07:44:54;0.73;;;0.60;;
4676;SDS011;2352;48.180;11.478;2022-07-11T07:47:59;2.77;;;1.07;;
4676;SDS011;2352;48.180;11.478;2022-07-11T07:51:02;1.43;;;0.50;;
4676;SDS011;2352;48.180;11.478;2022-07-11T07:54:04;0.80;;;0.80;;
4676;SDS011;2352;48.180;11.478;2022-07-11T07:57:07;1.30;;;0.70;;
4676;SDS011;2352;48.180;11.478;2022-07-11T08:00:11;2.43;;;0.97;;
4676;SDS011;2352;48.180;11.478;2022-07-11T08:03:39;1.10;;;0.97;;
4676;SDS011;2352;48.180;11.478;2022-07-11T08:06:43;2.20;;;0.77;;
4676;SDS011;2352;48.180;11.478;2022-07-11T08:09:46;1.83;;;0.70;;
4676;SDS011;2352;48.180;11.478;2022-07-11T08:12:49;1.40;;;0.43;;
4676;SDS011;2352;48.180;11.478;2022-07-11T08:15:52;3.33;;;0.83;;
4676;SDS011;2352;48.180;11.478;2022-07-11T08:18:57;2.60;;;0.73;;
4676;SDS011;2352;48.180;11.478;2022-07-11T08:22:00;2.47;;;0.73;;
4676;SDS011;2352;48.180;11.478;2022-07-11T08:25:04;0.30;;;0.30;;
4676;SDS011;2352;48.180;11.478;2022-07-11T08:28:07;3.90;;;0.60;;
4676;SDS011;2352;48.180;11.478;2022-07-11T08:31:10;1.37;;;0.60;;
4676;SDS011;2352;48.180;11.478;2022-07-11T08:34:14;1.17;;;0.70;;
4676;SDS011;2352;48.180;11.478;2022-07-11T08:37:17;0.80;;;0.50;;
4676;SDS011;2352;48.180;11.478;2022-07-11T08:40:20;2.23;;;0.50;;
4676;SDS011;2352;48.180;11.478;2022-07-11T08:43:27;1.08;;;0.47;;
4676;SDS011;2352;48.180;11.478;2022-07-11T08:46:30;1.30;;;0.70;;
4676;SDS011;2352;48.180;11.478;2022-07-11T08:49:35;1.83;;;0.53;;
4676;SDS011;2352;48.180;11.478;2022-07-11T08:52:38;0.52;;;0.50;;
4676;SDS011;2352;48.180;11.478;2022-07-11T08:55:42;0.93;;;0.60;;
4676;SDS011;2352;48.180;11.478;2022-07-11T08:58:46;0.83;;;0.60;;
4676;SDS011;2352;48.180;11.478;2022-07-11T09:01:55;0.50;;;0.40;;
4676;SDS011;2352;48.180;11.478;2022-07-11T09:05:06;0.77;;;0.40;;
4676;SDS011;2352;48.180;11.478;2022-07-11T09:08:10;0.73;;;0.33;;
4676;SDS011;2352;48.180;11.478;2022-07-11T09:11:13;0.70;;;0.40;;
4676;SDS011;2352;48.180;11.478;2022-07-11T09:14:20;0.82;;;0.22;;
4676;SDS011;2352;48.180;11.478;2022-07-11T09:17:29;0.73;;;0.25;;
4676;SDS011;2352;48.180;11.478;2022-07-11T09:24:13;1.83;;;0.40;;
4676;SDS011;2352;48.180;11.478;2022-07-11T09:27:39;0.32;;;0.30;;
4676;SDS011;2352;48.180;11.478;2022-07-11T09:30:43;0.28;;;0.28;;
4676;SDS011;2352;48.180;11.478;2022-07-11T09:33:56;0.20;;;0.20;;
4676;SDS011;2352;48.180;11.478;2022-07-11T09:37:02;0.52;;;0.20;;
4676;SDS011;2352;48.180;11.478;2022-07-11T09:40:11;0.20;;;0.20;;
4676;SDS011;2352;48.180;11.478;2022-07-11T09:43:23;0.38;;;0.20;;
4676;SDS011;2352;48.180;11.478;2022-07-11T09:46:27;0.15;;;0.15;;
4676;SDS011;2352;48.180;11.478;2022-07-11T09:49:38;0.10;;;0.10;;
4676;SDS011;2352;48.180;11.478;2022-07-11T09:52:44;0.20;;;0.20;;
4676;SDS011;2352;48.180;11.478;2022-07-11T09:56:00;0.40;;;0.35;;
4676;SDS011;2352;48.180;11.478;2022-07-11T09:59:03;1.20;;;0.20;;
4676;SDS011;2352;48.180;11.478;2022-07-11T10:02:06;0.20;;;0.20;;
4676;SDS011;2352;48.180;11.478;2022-07-11T10:05:16;0.20;;;0.20;;
4676;SDS011;2352;48.180;11.478;2022-07-11T10:08:20;0.65;;;0.20;;
4676;SDS011;2352;48.180;11.478;2022-07-11T10:11:23;0.20;;;0.20;;
4676;SDS011;2352;48.180;11.478;2022-07-11T10:14:26;0.10;;;0.10;;
4676;SDS011;2352;48.180;11.478;2022-07-11T10:17:30;0.25;;;0.20;;
4676;SDS011;2352;48.180;11.478;2022-07-11T10:20:44;0.43;;;0.40;;
4676;SDS011;2352;48.180;11.478;2022-07-11T10:23:56;0.17;;;0.17;;
4676;SDS011;2352;48.180;11.478;2022-07-11T10:27:05;0.30;;;0.28;;
4676;SDS011;2352;48.180;11.478;2022-07-11T10:30:12;0.30;;;0.20;;
4676;SDS011;2352;48.180;11.478;2022-07-11T10:33:15;0.47;;;0.32;;
4676;SDS011;2352;48.180;11.478;2022-07-11T10:36:25;0.90;;;0.38;;
4676;SDS011;2352;48.180;11.478;2022-07-11T10:39:30;0.38;;;0.20;;
4676;SDS011;2352;48.180;11.478;2022-07-11T10:42:39;0.17;;;0.17;;
4676;SDS011;2352;48.180;11.478;2022-07-11T10:49:15;0.10;;;0.10;;
4676;SDS011;2352;48.180;11.478;2022-07-11T10:52:20;1.35;;;0.20;;
4676;SDS011;2352;48.180;11.478;2022-07-11T10:55:31;0.10;;;0.10;;
4676;SDS011;2352;48.180;11.478;2022-07-11T10:58:40;1.45;;;0.28;;
4676;SDS011;2352;48.180;11.478;2022-07-11T11:05:12;0.20;;;0.20;;
4676;SDS011;2352;48.180;11.478;2022-07-11T11:08:45;0.30;;;0.30;;
4676;SDS011;2352;48.180;11.478;2022-07-11T11:11:50;0.32;;;0.20;;
4676;SDS011;2352;48.180;11.478;2022-07-11T11:15:02;0.20;;;0.20;;
4676;SDS011;2352;48.180;11.478;2022-07-11T11:18:40;0.20;;;0.17;;
4676;SDS011;2352;48.180;11.478;2022-07-11T11:21:58;0.20;;;0.20;;
4676;SDS011;2352;48.180;11.478;2022-07-11T11:25:02;0.17;;;0.10;;
4676;SDS011;2352;48.180;11.478;2022-07-11T11:28:25;0.45;;;0.32;;
4676;SDS011;2352;48.180;11.478;2022-07-11T11:31:29;1.75;;;0.17;;
4676;SDS011;2352;48.180;11.478;2022-07-11T11:34:33;0.45;;;0.25;;
4676;SDS011;2352;48.180;11.478;2022-07-11T11:37:36;0.13;;;0.13;;
4676;SDS011;2352;48.180;11.478;2022-07-11T11:40:46;0.38;;;0.22;;
4676;SDS011;2352;48.180;11.478;2022-07-11T11:43:51;0.38;;;0.38;;
4676;SDS011;2352;48.180;11.478;2022-07-11T11:46:55;0.20;;;0.20;;
4676;SDS011;2352;48.180;11.478;2022-07-11T11:49:58;0.65;;;0.30;;
4676;SDS011;2352;48.180;11.478;2022-07-11T11:53:01;0.52;;;0.50;;
4676;SDS011;2352;48.180;11.478;2022-07-11T11:56:14;0.20;;;0.20;;
4676;SDS011;2352;48.180;11.478;2022-07-11T11:59:27;1.02;;;0.40;;
4676;SDS011;2352;48.180;11.478;2022-07-11T12:02:31;0.82;;;0.40;;
4676;SDS011;2352;48.180;11.478;2022-07-11T12:05:34;0.30;;;0.30;;
4676;SDS011;2352;48.180;11.478;2022-07-11T12:08:37;0.35;;;0.35;;
4676;SDS011;2352;48.180;11.478;2022-07-11T12:11:40;0.55;;;0.38;;
4676;SDS011;2352;48.180;11.478;2022-07-11T12:14:46;0.35;;;0.35;;
4676;SDS011;2352;48.180;11.478;2022-07-11T12:17:49;0.20;;;0.20;;
4676;SDS011;2352;48.180;11.478;2022-07-11T12:20:54;1.35;;;0.50;;
4676;SDS011;2352;48.180;11.478;2022-07-11T12:23:58;0.30;;;0.30;;
4676;SDS011;2352;48.180;11.478;2022-07-11T12:27:02;0.30;;;0.30;;
4676;SDS011;2352;48.180;11.478;2022-07-11T12:30:07;0.15;;;0.10;;
4676;SDS011;2352;48.180;11.478;2022-07-11T12:33:24;0.13;;;0.13;;
4676;SDS011;2352;48.180;11.478;2022-07-11T12:36:31;0.25;;;0.25;;
4676;SDS011;2352;48.180;11.478;2022-07-11T12:39:35;0.40;;;0.40;;
4676;SDS011;2352;48.180;11.478;2022-07-11T12:42:39;0.25;;;0.25;;
4676;SDS011;2352;48.180;11.478;2022-07-11T12:45:44;1.00;;;0.30;;
4676;SDS011;2352;48.180;11.478;2022-07-11T12:49:02;0.30;;;0.30;;
4676;SDS011;2352;48.180;11.478;2022-07-11T12:52:06;0.95;;;0.40;;
4676;SDS011;2352;48.180;11.478;2022-07-11T12:55:09;0.20;;;0.20;;
4676;SDS011;2352;48.180;11.478;2022-07-11T12:58:13;0.50;;;0.50;;
4676;SDS011;2352;48.180;11.478;2022-07-11T13:01:19;1.65;;;0.50;;
4676;SDS011;2352;48.180;11.478;2022-07-11T13:04:36;0.30;;;0.30;;
4676;SDS011;2352;48.180;11.478;2022-07-11T13:07:40;0.30;;;0.20;;
4676;SDS011;2352;48.180;11.478;2022-07-11T13:11:01;0.30;;;0.30;;
4676;SDS011;2352;48.180;11.478;2022-07-11T13:14:07;1.25;;;0.25;;
4676;SDS011;2352;48.180;11.478;2022-07-11T13:17:31;0.52;;;0.40;;
4676;SDS011;2352;48.180;11.478;2022-07-11T13:20:36;0.52;;;0.40;;
4676;SDS011;2352;48.180;11.478;2022-07-11T13:23:39;0.73;;;0.20;;
4676;SDS011;2352;48.180;11.478;2022-07-11T13:26:42;0.43;;;0.38;;
4676;SDS011;2352;48.180;11.478;2022-07-11T13:29:45;0.30;;;0.30;;
4676;SDS011;2352;48.180;11.478;2022-07-11T13:32:50;0.30;;;0.30;;
4676;SDS011;2352;48.180;11.478;2022-07-11T13:35:53;0.57;;;0.30;;
4676;SDS011;2352;48.180;11.478;2022-07-11T13:38:57;0.20;;;0.20;;
4676;SDS011;2352;48.180;11.478;2022-07-11T13:42:00;0.30;;;0.30;;
4676;SDS011;2352;48.180;11.478;2022-07-11T13:45:03;0.50;;;0.50;;
4676;SDS011;2352;48.180;11.478;2022-07-11T13:48:08;0.40;;;0.40;;
4676;SDS011;2352;48.180;11.478;2022-07-11T13:51:11;0.40;;;0.40;;
4676;SDS011;2352;48.180;11.478;2022-07-11T13:54:14;0.40;;;0.40;;
4676;SDS011;2352;48.180;11.478;2022-07-11T13:57:17;3.03;;;0.60;;
4676;SDS011;2352;48.180;11.478;2022-07-11T14:00:21;0.25;;;0.25;;
4676;SDS011;2352;48.180;11.478;2022-07-11T14:03:26;0.30;;;0.30;;
4676;SDS011;2352;48.180;11.478;2022-07-11T14:06:29;0.57;;;0.45;;
4676;SDS011;2352;48.180;11.478;2022-07-11T14:09:52;0.30;;;0.30;;
4676;SDS011;2352;48.180;11.478;2022-07-11T14:12:55;0.32;;;0.30;;
4676;SDS011;2352;48.180;11.478;2022-07-11T14:16:00;0.38;;;0.30;;
4676;SDS011;2352;48.180;11.478;2022-07-11T14:19:12;0.30;;;0.30;;
4676;SDS011;2352;48.180;11.478;2022-07-11T14:22:15;0.30;;;0.30;;
4676;SDS011;2352;48.180;11.478;2022-07-11T14:25:18;0.30;;;0.30;;
4676;SDS011;2352;48.180;11.478;2022-07-11T14:28:22;0.88;;;0.73;;
4676;SDS011;2352;48.180;11.478;2022-07-11T14:31:30;0.30;;;0.30;;
4676;SDS011;2352;48.180;11.478;2022-07-11T14:34:34;0.30;;;0.30;;
4676;SDS011;2352;48.180;11.478;2022-07-11T14:37:38;0.50;;;0.45;;
4676;SDS011;2352;48.180;11.478;2022-07-11T14:40:41;0.65;;;0.40;;
4676;SDS011;2352;48.180;11.478;2022-07-11T14:43:44;0.35;;;0.35;;
4676;SDS011;2352;48.180;11.478;2022-07-11T14:46:47;0.20;;;0.20;;
4676;SDS011;2352;48.180;11.478;2022-07-11T14:49:52;0.20;;;0.20;;
4676;SDS011;2352;48.180;11.478;2022-07-11T14:52:55;0.47;;;0.40;;
4676;SDS011;2352;48.180;11.478;2022-07-11T14:55:58;0.30;;;0.30;;
4676;SDS011;2352;48.180;11.478;2022-07-11T14:59:21;0.30;;;0.30;;
4676;SDS011;2352;48.180;11.478;2022-07-11T15:02:25;0.38;;;0.38;;
4676;SDS011;2352;48.180;11.478;2022-07-11T15:05:47;1.48;;;0.22;;
4676;SDS011;2352;48.180;11.478;2022-07-11T15:08:51;0.40;;;0.40;;
4676;SDS011;2352;48.180;11.478;2022-07-11T15:12:11;1.05;;;0.60;;
4676;SDS011;2352;48.180;11.478;2022-07-11T15:15:25;2.17;;;0.40;;
4676;SDS011;2352;48.180;11.478;2022-07-11T15:18:28;0.40;;;0.40;;
4676;SDS011;2352;48.180;11.478;2022-07-11T15:21:33;0.43;;;0.40;;
4676;SDS011;2352;48.180;11.478;2022-07-11T15:24:36;0.50;;;0.40;;
4676;SDS011;2352;48.180;11.478;2022-07-11T15:27:39;0.30;;;0.30;;
4676;SDS011;2352;48.180;11.478;2022-07-11T15:30:42;0.77;;;0.50;;
4676;SDS011;2352;48.180;11.478;2022-07-11T15:33:45;0.40;;;0.40;;
4676;SDS011;2352;48.180;11.478;2022-07-11T15:36:51;0.22;;;0.22;;
4676;SDS011;2352;48.180;11.478;2022-07-11T15:39:54;0.30;;;0.30;;
4676;SDS011;2352;48.180;11.478;2022-07-11T15:43:05;0.40;;;0.38;;
4676;SDS011;2352;48.180;11.478;2022-07-11T15:46:08;0.40;;;0.40;;
4676;SDS011;2352;48.180;11.478;2022-07-11T15:49:12;0.65;;;0.50;;
4676;SDS011;2352;48.180;11.478;2022-07-11T15:52:17;0.55;;;0.50;;
4676;SDS011;2352;48.180;11.478;2022-07-11T15:55:20;0.60;;;0.40;;
4676;SDS011;2352;48.180;11.478;2022-07-11T15:58:23;0.50;;;0.50;;
4676;SDS011;2352;48.180;11.478;2022-07-11T16:01:27;0.93;;;0.38;;
4676;SDS011;2352;48.180;11.478;2022-07-11T16:04:34;0.40;;;0.40;;
4676;SDS011;2352;48.180;11.478;2022-07-11T16:07:38;0.57;;;0.43;;
4676;SDS011;2352;48.180;11.478;2022-07-11T16:10:41;0.40;;;0.40;;
4676;SDS011;2352;48.180;11.478;2022-07-11T16:13:48;0.75;;;0.40;;
4676;SDS011;2352;48.180;11.478;2022-07-11T16:16:50;0.82;;;0.47;;
4676;SDS011;2352;48.180;11.478;2022-07-11T16:19:53;0.45;;;0.30;;
4676;SDS011;2352;48.180;11.478;2022-07-11T16:22:58;1.08;;;0.50;;
4676;SDS011;2352;48.180;11.478;2022-07-11T16:26:01;1.05;;;0.65;;
4676;SDS011;2352;48.180;11.478;2022-07-11T16:29:04;1.08;;;0.60;;
4676;SDS011;2352;48.180;11.478;2022-07-11T16:32:07;0.40;;;0.40;;
4676;SDS011;2352;48.180;11.478;2022-07-11T16:35:10;0.73;;;0.70;;
4676;SDS011;2352;48.180;11.478;2022-07-11T16:38:15;0.50;;;0.50;;
4676;SDS011;2352;48.180;11.478;2022-07-11T16:41:18;0.50;;;0.50;;
4676;SDS011;2352;48.180;11.478;2022-07-11T16:44:38;1.73;;;0.50;;
4676;SDS011;2352;48.180;11.478;2022-07-11T16:47:41;0.50;;;0.50;;
4676;SDS011;2352;48.180;11.478;2022-07-11T16:50:44;0.70;;;0.70;;
4676;SDS011;2352;48.180;11.478;2022-07-11T16:53:52;0.45;;;0.43;;
4676;SDS011;2352;48.180;11.478;2022-07-11T16:56:55;1.77;;;0.47;;
4676;SDS011;2352;48.180;11.478;2022-07-11T16:59:58;0.38;;;0.38;;
4676;SDS011;2352;48.180;11.478;2022-07-11T17:03:01;1.40;;;0.50;;
4676;SDS011;2352;48.180;11.478;2022-07-11T17:06:05;1.45;;;0.85;;
4676;SDS011;2352;48.180;11.478;2022-07-11T17:09:10;0.55;;;0.55;;
4676;SDS011;2352;48.180;11.478;2022-07-11T17:12:12;0.45;;;0.45;;
4676;SDS011;2352;48.180;11.478;2022-07-11T17:15:15;1.75;;;0.57;;
4676;SDS011;2352;48.180;11.478;2022-07-11T17:18:18;0.70;;;0.70;;
4676;SDS011;2352;48.180;11.478;2022-07-11T17:21:22;0.68;;;0.68;;
4676;SDS011;2352;48.180;11.478;2022-07-11T17:24:26;0.60;;;0.60;;
4676;SDS011;2352;48.180;11.478;2022-07-11T17:27:29;0.60;;;0.60;;
4676;SDS011;2352;48.180;11.478;2022-07-11T17:30:32;0.55;;;0.55;;
4676;SDS011;2352;48.180;11.478;2022-07-11T17:33:35;0.60;;;0.60;;
4676;SDS011;2352;48.180;11.478;2022-07-11T17:36:39;1.00;;;0.98;;
4676;SDS011;2352;48.180;11.478;2022-07-11T17:39:44;0.63;;;0.63;;
4676;SDS011;2352;48.180;11.478;2022-07-11T17:42:48;0.50;;;0.50;;
4676;SDS011;2352;48.180;11.478;2022-07-11T17:45:51;0.73;;;0.73;;
4676;SDS011;2352;48.180;11.478;2022-07-11T17:48:54;0.60;;;0.60;;
4676;SDS011;2352;48.180;11.478;2022-07-11T17:51:57;1.25;;;0.80;;
4676;SDS011;2352;48.180;11.478;2022-07-11T17:55:03;1.10;;;1.05;;
4676;SDS011;2352;48.180;11.478;2022-07-11T17:58:07;0.80;;;0.80;;
4676;SDS011;2352;48.180;11.478;2022-07-11T18:01:10;0.80;;;0.80;;
4676;SDS011;2352;48.180;11.478;2022-07-11T18:04:13;0.80;;;0.80;;
4676;SDS011;2352;48.180;11.478;2022-07-11T18:07:17;0.95;;;0.80;;
4676;SDS011;2352;48.180;11.478;2022-07-11T18:10:25;0.70;;;0.70;;
4676;SDS011;2352;48.180;11.478;2022-07-11T18:13:28;0.90;;;0.90;;
4676;SDS011;2352;48.180;11.478;2022-07-11T18:16:31;0.98;;;0.95;;
4676;SDS011;2352;48.180;11.478;2022-07-11T18:19:34;0.93;;;0.90;;
4676;SDS011;2352;48.180;11.478;2022-07-11T18:22:38;1.88;;;0.95;;
4676;SDS011;2352;48.180;11.478;2022-07-11T18:25:43;0.90;;;0.90;;
4676;SDS011;2352;48.180;11.478;2022-07-11T18:28:46;1.33;;;1.10;;
4676;SDS011;2352;48.180;11.478;2022-07-11T18:31:50;1.40;;;1.05;;
4676;SDS011;2352;48.180;11.478;2022-07-11T18:34:53;1.17;;;1.08;;
4676;SDS011;2352;48.180;11.478;2022-07-11T18:37:56;1.23;;;1.10;;
4676;SDS011;2352;48.180;11.478;2022-07-11T18:41:00;1.13;;;1.10;;
4676;SDS011;2352;48.180;11.478;2022-07-11T18:44:14;1.35;;;1.00;;
4676;SDS011;2352;48.180;11.478;2022-07-11T18:47:17;1.27;;;1.27;;
4676;SDS011;2352;48.180;11.478;2022-07-11T18:50:20;0.90;;;0.90;;
4676;SDS011;2352;48.180;11.478;2022-07-11T18:53:23;0.95;;;0.77;;
4676;SDS011;2352;48.180;11.478;2022-07-11T18:56:27;1.15;;;1.10;;
4676;SDS011;2352;48.180;11.478;2022-07-11T18:59:32;1.20;;;1.10;;
4676;SDS011;2352;48.180;11.478;2022-07-11T19:02:35;0.93;;;0.90;;